sensor_id;sensor_type;location;lat;lon;timestamp;P1;durP1;ratioP1;P2;durP2;ratioP2
18748;SDS011;9503;53.560;10.246;2023-09-07T00:02:26;6.53;;;4.90;;
18748;SDS011;9503;53.560;10.246;2023-09-07T00:04:52;8.68;;;5.25;;
18748;SDS011;9503;53.560;10.246;2023-09-07T00:07:19;6.95;;;5.13;;
18748;SDS011;9503;53.560;10.246;2023-09-07T00:09:45;6.40;;;5.20;;
18748;SDS011;9503;53.560;10.246;2023-09-07T00:12:12;7.65;;;5.60;;
18748;SDS011;9503;53.560;10.246;2023-09-07T00:14:39;5.85;;;5.35;;
18748;SDS011;9503;53.560;10.246;2023-09-07T00:17:07;6.38;;;5.50;;
18748;SDS011;9503;53.560;10.246;2023-09-07T00:19:33;5.45;;;4.88;;
18748;SDS011;9503;53.560;10.246;2023-09-07T00:22:01;9.20;;;5.53;;
18748;SDS011;9503;53.560;10.246;2023-09-07T00:24:29;8.00;;;5.47;;
18748;SDS011;9503;53.560;10.246;2023-09-07T00:26:56;7.65;;;5.30;;
18748;SDS011;9503;53.560;10.246;2023-09-07T00:29:23;7.80;;;5.78;;
18748;SDS011;9503;53.560;10.246;2023-09-07T00:31:49;6.47;;;5.10;;
18748;SDS011;9503;53.560;10.246;2023-09-07T00:34:17;6.97;;;5.25;;
18748;SDS011;9503;53.560;10.246;2023-09-07T00:36:44;8.40;;;5.10;;
18748;SDS011;9503;53.560;10.246;2023-09-07T00:39:10;5.93;;;5.32;;
18748;SDS011;9503;53.560;10.246;2023-09-07T00:41:37;8.32;;;5.50;;
18748;SDS011;9503;53.560;10.246;2023-09-07T00:44:04;7.95;;;4.72;;
18748;SDS011;9503;53.560;10.246;2023-09-07T00:46:31;6.85;;;5.55;;
18748;SDS011;9503;53.560;10.246;2023-09-07T00:48:57;6.28;;;5.40;;
18748;SDS011;9503;53.560;10.246;2023-09-07T00:51:25;6.57;;;5.60;;
18748;SDS011;9503;53.560;10.246;2023-09-07T00:53:52;6.43;;;5.25;;
18748;SDS011;9503;53.560;10.246;2023-09-07T00:56:19;6.95;;;5.90;;
18748;SDS011;9503;53.560;10.246;2023-09-07T00:58:46;7.78;;;5.60;;
18748;SDS011;9503;53.560;10.246;2023-09-07T01:01:13;8.75;;;5.13;;
18748;SDS011;9503;53.560;10.246;2023-09-07T01:03:40;11.85;;;6.00;;
18748;SDS011;9503;53.560;10.246;2023-09-07T01:06:07;9.73;;;6.03;;
18748;SDS011;9503;53.560;10.246;2023-09-07T01:08:41;7.13;;;5.88;;
18748;SDS011;9503;53.560;10.246;2023-09-07T01:11:13;7.15;;;6.22;;
18748;SDS011;9503;53.560;10.246;2023-09-07T01:13:40;8.52;;;6.30;;
18748;SDS011;9503;53.560;10.246;2023-09-07T01:16:07;7.55;;;6.07;;
18748;SDS011;9503;53.560;10.246;2023-09-07T01:18:34;6.82;;;5.85;;
18748;SDS011;9503;53.560;10.246;2023-09-07T01:21:03;6.97;;;6.30;;
18748;SDS011;9503;53.560;10.246;2023-09-07T01:23:33;6.43;;;5.75;;
18748;SDS011;9503;53.560;10.246;2023-09-07T01:26:01;7.00;;;5.85;;
18748;SDS011;9503;53.560;10.246;2023-09-07T01:28:28;7.65;;;6.60;;
18748;SDS011;9503;53.560;10.246;2023-09-07T01:30:56;7.22;;;6.53;;
18748;SDS011;9503;53.560;10.246;2023-09-07T01:33:22;6.90;;;6.20;;
18748;SDS011;9503;53.560;10.246;2023-09-07T01:35:49;7.50;;;6.28;;
18748;SDS011;9503;53.560;10.246;2023-09-07T01:38:16;7.43;;;6.43;;
18748;SDS011;9503;53.560;10.246;2023-09-07T01:40:44;7.00;;;6.30;;
18748;SDS011;9503;53.560;10.246;2023-09-07T01:43:11;7.18;;;6.47;;
18748;SDS011;9503;53.560;10.246;2023-09-07T01:45:38;7.78;;;5.63;;
18748;SDS011;9503;53.560;10.246;2023-09-07T01:48:07;8.20;;;6.32;;
18748;SDS011;9503;53.560;10.246;2023-09-07T01:50:35;7.78;;;6.32;;
18748;SDS011;9503;53.560;10.246;2023-09-07T01:53:01;7.45;;;6.45;;
18748;SDS011;9503;53.560;10.246;2023-09-07T01:55:29;8.30;;;6.63;;
18748;SDS011;9503;53.560;10.246;2023-09-07T01:57:57;10.48;;;7.28;;
18748;SDS011;9503;53.560;10.246;2023-09-07T02:00:24;13.35;;;6.82;;
18748;SDS011;9503;53.560;10.246;2023-09-07T02:02:50;10.77;;;7.07;;
18748;SDS011;9503;53.560;10.246;2023-09-07T02:05:17;10.02;;;7.40;;
18748;SDS011;9503;53.560;10.246;2023-09-07T02:07:44;7.68;;;6.75;;
18748;SDS011;9503;53.560;10.246;2023-09-07T02:10:12;10.52;;;7.45;;
18748;SDS011;9503;53.560;10.246;2023-09-07T02:12:38;7.47;;;6.85;;
18748;SDS011;9503;53.560;10.246;2023-09-07T02:15:06;8.05;;;7.25;;
18748;SDS011;9503;53.560;10.246;2023-09-07T02:17:33;7.97;;;7.05;;
18748;SDS011;9503;53.560;10.246;2023-09-07T02:20:00;10.23;;;7.15;;
18748;SDS011;9503;53.560;10.246;2023-09-07T02:22:32;10.30;;;7.72;;
18748;SDS011;9503;53.560;10.246;2023-09-07T02:24:59;13.13;;;8.13;;
18748;SDS011;9503;53.560;10.246;2023-09-07T02:27:26;9.50;;;7.60;;
18748;SDS011;9503;53.560;10.246;2023-09-07T02:29:52;9.52;;;7.40;;
18748;SDS011;9503;53.560;10.246;2023-09-07T02:32:20;11.32;;;7.10;;
18748;SDS011;9503;53.560;10.246;2023-09-07T02:34:47;10.00;;;7.35;;
18748;SDS011;9503;53.560;10.246;2023-09-07T02:37:14;8.95;;;7.28;;
18748;SDS011;9503;53.560;10.246;2023-09-07T02:39:41;8.75;;;7.88;;
18748;SDS011;9503;53.560;10.246;2023-09-07T02:42:07;10.93;;;7.35;;
18748;SDS011;9503;53.560;10.246;2023-09-07T02:44:34;10.13;;;9.07;;
18748;SDS011;9503;53.560;10.246;2023-09-07T02:47:01;8.38;;;7.45;;
18748;SDS011;9503;53.560;10.246;2023-09-07T02:49:29;8.80;;;7.90;;
18748;SDS011;9503;53.560;10.246;2023-09-07T02:51:56;9.85;;;8.02;;
18748;SDS011;9503;53.560;10.246;2023-09-07T02:54:23;9.82;;;8.68;;
18748;SDS011;9503;53.560;10.246;2023-09-07T02:56:49;10.23;;;8.15;;
18748;SDS011;9503;53.560;10.246;2023-09-07T02:59:16;9.73;;;8.52;;
18748;SDS011;9503;53.560;10.246;2023-09-07T03:01:43;11.45;;;9.00;;
18748;SDS011;9503;53.560;10.246;2023-09-07T03:04:10;9.18;;;8.18;;
18748;SDS011;9503;53.560;10.246;2023-09-07T03:06:38;9.50;;;8.15;;
18748;SDS011;9503;53.560;10.246;2023-09-07T03:09:05;10.50;;;8.90;;
18748;SDS011;9503;53.560;10.246;2023-09-07T03:11:34;10.68;;;8.60;;
18748;SDS011;9503;53.560;10.246;2023-09-07T03:14:00;10.65;;;9.25;;
18748;SDS011;9503;53.560;10.246;2023-09-07T03:16:27;10.57;;;9.05;;
18748;SDS011;9503;53.560;10.246;2023-09-07T03:18:55;12.20;;;8.98;;
18748;SDS011;9503;53.560;10.246;2023-09-07T03:21:21;13.10;;;9.65;;
18748;SDS011;9503;53.560;10.246;2023-09-07T03:23:52;13.50;;;9.52;;
18748;SDS011;9503;53.560;10.246;2023-09-07T03:26:18;11.07;;;9.30;;
18748;SDS011;9503;53.560;10.246;2023-09-07T03:28:45;10.98;;;9.48;;
18748;SDS011;9503;53.560;10.246;2023-09-07T03:31:12;13.63;;;10.10;;
18748;SDS011;9503;53.560;10.246;2023-09-07T03:33:38;11.68;;;9.77;;
18748;SDS011;9503;53.560;10.246;2023-09-07T03:36:05;11.30;;;9.38;;
18748;SDS011;9503;53.560;10.246;2023-09-07T03:38:32;15.48;;;10.27;;
18748;SDS011;9503;53.560;10.246;2023-09-07T03:41:00;10.55;;;9.45;;
18748;SDS011;9503;53.560;10.246;2023-09-07T03:43:26;11.82;;;10.13;;
18748;SDS011;9503;53.560;10.246;2023-09-07T03:45:53;11.10;;;9.77;;
18748;SDS011;9503;53.560;10.246;2023-09-07T03:48:20;10.20;;;9.05;;
18748;SDS011;9503;53.560;10.246;2023-09-07T03:50:46;12.63;;;9.98;;
18748;SDS011;9503;53.560;10.246;2023-09-07T03:53:13;11.13;;;9.48;;
18748;SDS011;9503;53.560;10.246;2023-09-07T03:55:40;10.90;;;9.50;;
18748;SDS011;9503;53.560;10.246;2023-09-07T03:58:09;13.43;;;10.45;;
18748;SDS011;9503;53.560;10.246;2023-09-07T04:00:37;14.20;;;10.30;;
18748;SDS011;9503;53.560;10.246;2023-09-07T04:03:04;13.52;;;10.95;;
18748;SDS011;9503;53.560;10.246;2023-09-07T04:05:31;15.57;;;11.15;;
18748;SDS011;9503;53.560;10.246;2023-09-07T04:07:58;14.05;;;11.82;;
18748;SDS011;9503;53.560;10.246;2023-09-07T04:10:25;15.48;;;11.02;;
18748;SDS011;9503;53.560;10.246;2023-09-07T04:12:52;12.95;;;11.60;;
18748;SDS011;9503;53.560;10.246;2023-09-07T04:15:20;14.20;;;11.07;;
18748;SDS011;9503;53.560;10.246;2023-09-07T04:17:47;16.25;;;11.60;;
18748;SDS011;9503;53.560;10.246;2023-09-07T04:20:13;14.30;;;10.45;;
18748;SDS011;9503;53.560;10.246;2023-09-07T04:22:40;13.25;;;11.63;;
18748;SDS011;9503;53.560;10.246;2023-09-07T04:25:07;13.30;;;11.07;;
18748;SDS011;9503;53.560;10.246;2023-09-07T04:27:33;13.93;;;11.43;;
18748;SDS011;9503;53.560;10.246;2023-09-07T04:30:00;15.38;;;11.73;;
18748;SDS011;9503;53.560;10.246;2023-09-07T04:32:28;13.40;;;11.50;;
18748;SDS011;9503;53.560;10.246;2023-09-07T04:34:55;15.90;;;12.18;;
18748;SDS011;9503;53.560;10.246;2023-09-07T04:37:24;15.13;;;11.07;;
18748;SDS011;9503;53.560;10.246;2023-09-07T04:39:52;12.82;;;11.45;;
18748;SDS011;9503;53.560;10.246;2023-09-07T04:42:19;16.63;;;11.70;;
18748;SDS011;9503;53.560;10.246;2023-09-07T04:44:46;15.27;;;11.30;;
18748;SDS011;9503;53.560;10.246;2023-09-07T04:47:12;12.18;;;10.88;;
18748;SDS011;9503;53.560;10.246;2023-09-07T04:49:40;14.02;;;10.65;;
18748;SDS011;9503;53.560;10.246;2023-09-07T04:52:07;16.67;;;11.40;;
18748;SDS011;9503;53.560;10.246;2023-09-07T04:54:34;14.02;;;11.88;;
18748;SDS011;9503;53.560;10.246;2023-09-07T04:57:01;15.13;;;11.63;;
18748;SDS011;9503;53.560;10.246;2023-09-07T04:59:28;12.70;;;11.38;;
18748;SDS011;9503;53.560;10.246;2023-09-07T05:01:54;13.40;;;11.80;;
18748;SDS011;9503;53.560;10.246;2023-09-07T05:04:24;16.48;;;11.93;;
18748;SDS011;9503;53.560;10.246;2023-09-07T05:06:52;13.02;;;11.32;;
18748;SDS011;9503;53.560;10.246;2023-09-07T05:09:19;16.10;;;10.93;;
18748;SDS011;9503;53.560;10.246;2023-09-07T05:11:46;13.15;;;10.27;;
18748;SDS011;9503;53.560;10.246;2023-09-07T05:14:13;13.63;;;10.57;;
18748;SDS011;9503;53.560;10.246;2023-09-07T05:16:41;12.80;;;11.15;;
18748;SDS011;9503;53.560;10.246;2023-09-07T05:19:08;13.48;;;10.57;;
18748;SDS011;9503;53.560;10.246;2023-09-07T05:21:35;12.68;;;11.38;;
18748;SDS011;9503;53.560;10.246;2023-09-07T05:24:03;14.00;;;10.68;;
18748;SDS011;9503;53.560;10.246;2023-09-07T05:26:30;14.35;;;10.32;;
18748;SDS011;9503;53.560;10.246;2023-09-07T05:28:56;13.65;;;10.60;;
18748;SDS011;9503;53.560;10.246;2023-09-07T05:31:23;14.30;;;9.55;;
18748;SDS011;9503;53.560;10.246;2023-09-07T05:33:50;9.73;;;8.73;;
18748;SDS011;9503;53.560;10.246;2023-09-07T05:36:16;9.00;;;7.25;;
18748;SDS011;9503;53.560;10.246;2023-09-07T05:38:43;9.63;;;7.03;;
18748;SDS011;9503;53.560;10.246;2023-09-07T05:41:11;7.65;;;6.85;;
18748;SDS011;9503;53.560;10.246;2023-09-07T05:43:38;7.60;;;6.90;;
18748;SDS011;9503;53.560;10.246;2023-09-07T05:46:04;7.32;;;6.25;;
18748;SDS011;9503;53.560;10.246;2023-09-07T05:48:31;7.80;;;7.00;;
18748;SDS011;9503;53.560;10.246;2023-09-07T05:50:58;9.23;;;7.18;;
18748;SDS011;9503;53.560;10.246;2023-09-07T05:53:24;10.15;;;8.00;;
18748;SDS011;9503;53.560;10.246;2023-09-07T05:55:51;8.52;;;7.25;;
18748;SDS011;9503;53.560;10.246;2023-09-07T05:58:19;10.52;;;7.00;;
18748;SDS011;9503;53.560;10.246;2023-09-07T06:00:46;9.00;;;7.60;;
18748;SDS011;9503;53.560;10.246;2023-09-07T06:03:12;11.35;;;6.72;;
18748;SDS011;9503;53.560;10.246;2023-09-07T06:05:39;11.77;;;6.63;;
18748;SDS011;9503;53.560;10.246;2023-09-07T06:08:06;9.13;;;6.75;;
18748;SDS011;9503;53.560;10.246;2023-09-07T06:10:33;9.82;;;7.05;;
18748;SDS011;9503;53.560;10.246;2023-09-07T06:13:00;7.45;;;6.78;;
18748;SDS011;9503;53.560;10.246;2023-09-07T06:15:28;8.63;;;6.55;;
18748;SDS011;9503;53.560;10.246;2023-09-07T06:17:55;7.30;;;6.60;;
18748;SDS011;9503;53.560;10.246;2023-09-07T06:20:22;8.75;;;6.68;;
18748;SDS011;9503;53.560;10.246;2023-09-07T06:22:48;9.32;;;7.43;;
18748;SDS011;9503;53.560;10.246;2023-09-07T06:25:15;9.77;;;7.00;;
18748;SDS011;9503;53.560;10.246;2023-09-07T06:27:42;8.60;;;6.43;;
18748;SDS011;9503;53.560;10.246;2023-09-07T06:30:09;7.63;;;6.13;;
18748;SDS011;9503;53.560;10.246;2023-09-07T06:32:37;7.18;;;6.28;;
18748;SDS011;9503;53.560;10.246;2023-09-07T06:35:05;10.85;;;6.78;;
18748;SDS011;9503;53.560;10.246;2023-09-07T06:37:32;10.15;;;6.38;;
18748;SDS011;9503;53.560;10.246;2023-09-07T06:39:59;12.55;;;6.53;;
18748;SDS011;9503;53.560;10.246;2023-09-07T06:42:25;8.45;;;6.43;;
18748;SDS011;9503;53.560;10.246;2023-09-07T06:44:52;8.50;;;6.53;;
18748;SDS011;9503;53.560;10.246;2023-09-07T06:47:19;7.63;;;6.68;;
18748;SDS011;9503;53.560;10.246;2023-09-07T06:49:47;9.82;;;6.85;;
18748;SDS011;9503;53.560;10.246;2023-09-07T06:52:13;8.20;;;6.30;;
18748;SDS011;9503;53.560;10.246;2023-09-07T06:54:40;8.02;;;6.20;;
18748;SDS011;9503;53.560;10.246;2023-09-07T06:57:07;9.80;;;6.95;;
18748;SDS011;9503;53.560;10.246;2023-09-07T06:59:34;9.77;;;6.30;;
18748;SDS011;9503;53.560;10.246;2023-09-07T07:02:00;7.80;;;5.90;;
18748;SDS011;9503;53.560;10.246;2023-09-07T07:04:30;7.53;;;5.95;;
18748;SDS011;9503;53.560;10.246;2023-09-07T07:06:58;6.97;;;5.60;;
18748;SDS011;9503;53.560;10.246;2023-09-07T07:09:26;7.00;;;5.80;;
18748;SDS011;9503;53.560;10.246;2023-09-07T07:11:53;6.45;;;5.80;;
18748;SDS011;9503;53.560;10.246;2023-09-07T07:14:19;6.60;;;5.93;;
18748;SDS011;9503;53.560;10.246;2023-09-07T07:16:46;8.90;;;6.72;;
18748;SDS011;9503;53.560;10.246;2023-09-07T07:19:12;9.25;;;6.40;;
18748;SDS011;9503;53.560;10.246;2023-09-07T07:21:39;7.63;;;6.20;;
18748;SDS011;9503;53.560;10.246;2023-09-07T07:24:07;6.72;;;5.75;;
18748;SDS011;9503;53.560;10.246;2023-09-07T07:26:34;7.30;;;6.13;;
18748;SDS011;9503;53.560;10.246;2023-09-07T07:29:01;6.35;;;5.75;;
18748;SDS011;9503;53.560;10.246;2023-09-07T07:31:28;6.50;;;5.88;;
18748;SDS011;9503;53.560;10.246;2023-09-07T07:33:54;6.68;;;5.80;;
18748;SDS011;9503;53.560;10.246;2023-09-07T07:36:21;7.70;;;5.03;;
18748;SDS011;9503;53.560;10.246;2023-09-07T07:38:48;7.95;;;5.47;;
18748;SDS011;9503;53.560;10.246;2023-09-07T07:41:16;6.55;;;5.43;;
18748;SDS011;9503;53.560;10.246;2023-09-07T07:43:43;7.05;;;5.75;;
18748;SDS011;9503;53.560;10.246;2023-09-07T07:46:09;6.85;;;5.68;;
18748;SDS011;9503;53.560;10.246;2023-09-07T07:48:36;6.63;;;6.03;;
18748;SDS011;9503;53.560;10.246;2023-09-07T07:51:03;6.15;;;5.38;;
18748;SDS011;9503;53.560;10.246;2023-09-07T07:53:30;6.55;;;5.15;;
18748;SDS011;9503;53.560;10.246;2023-09-07T07:55:57;7.85;;;5.93;;
18748;SDS011;9503;53.560;10.246;2023-09-07T07:58:25;8.43;;;6.00;;
18748;SDS011;9503;53.560;10.246;2023-09-07T08:00:51;6.40;;;5.80;;
18748;SDS011;9503;53.560;10.246;2023-09-07T08:03:18;8.25;;;5.85;;
18748;SDS011;9503;53.560;10.246;2023-09-07T08:05:46;5.97;;;5.45;;
18748;SDS011;9503;53.560;10.246;2023-09-07T08:08:13;10.98;;;5.70;;
18748;SDS011;9503;53.560;10.246;2023-09-07T08:10:40;6.30;;;5.32;;
18748;SDS011;9503;53.560;10.246;2023-09-07T08:13:07;9.60;;;6.10;;
18748;SDS011;9503;53.560;10.246;2023-09-07T08:15:35;8.30;;;6.13;;
18748;SDS011;9503;53.560;10.246;2023-09-07T08:18:01;8.38;;;5.35;;
18748;SDS011;9503;53.560;10.246;2023-09-07T08:20:28;13.00;;;5.43;;
18748;SDS011;9503;53.560;10.246;2023-09-07T08:22:55;10.57;;;5.70;;
18748;SDS011;9503;53.560;10.246;2023-09-07T08:25:22;6.63;;;5.63;;
18748;SDS011;9503;53.560;10.246;2023-09-07T08:27:51;7.30;;;5.80;;
18748;SDS011;9503;53.560;10.246;2023-09-07T08:30:20;12.32;;;5.88;;
18748;SDS011;9503;53.560;10.246;2023-09-07T08:32:51;7.70;;;5.05;;
18748;SDS011;9503;53.560;10.246;2023-09-07T08:35:18;6.88;;;4.50;;
18748;SDS011;9503;53.560;10.246;2023-09-07T08:37:44;6.22;;;5.10;;
18748;SDS011;9503;53.560;10.246;2023-09-07T08:40:11;8.55;;;5.43;;
18748;SDS011;9503;53.560;10.246;2023-09-07T08:42:38;5.97;;;5.25;;
18748;SDS011;9503;53.560;10.246;2023-09-07T08:45:08;9.65;;;5.45;;
18748;SDS011;9503;53.560;10.246;2023-09-07T08:47:37;7.28;;;5.30;;
18748;SDS011;9503;53.560;10.246;2023-09-07T08:50:06;6.63;;;5.15;;
18748;SDS011;9503;53.560;10.246;2023-09-07T08:52:35;6.05;;;5.30;;
18748;SDS011;9503;53.560;10.246;2023-09-07T08:55:01;5.80;;;5.20;;
18748;SDS011;9503;53.560;10.246;2023-09-07T08:57:30;7.85;;;5.53;;
18748;SDS011;9503;53.560;10.246;2023-09-07T08:59:57;7.88;;;5.50;;
18748;SDS011;9503;53.560;10.246;2023-09-07T09:02:24;5.93;;;4.80;;
18748;SDS011;9503;53.560;10.246;2023-09-07T09:04:51;7.85;;;5.35;;
18748;SDS011;9503;53.560;10.246;2023-09-07T09:07:19;5.28;;;4.78;;
18748;SDS011;9503;53.560;10.246;2023-09-07T09:09:47;8.18;;;5.45;;
18748;SDS011;9503;53.560;10.246;2023-09-07T09:12:14;7.95;;;5.10;;
18748;SDS011;9503;53.560;10.246;2023-09-07T09:14:41;6.70;;;5.45;;
18748;SDS011;9503;53.560;10.246;2023-09-07T09:17:11;8.50;;;5.40;;
18748;SDS011;9503;53.560;10.246;2023-09-07T09:19:38;5.80;;;5.20;;
18748;SDS011;9503;53.560;10.246;2023-09-07T09:22:06;8.07;;;5.00;;
18748;SDS011;9503;53.560;10.246;2023-09-07T09:24:34;6.85;;;5.03;;
18748;SDS011;9503;53.560;10.246;2023-09-07T09:27:01;5.72;;;5.13;;
18748;SDS011;9503;53.560;10.246;2023-09-07T09:29:29;10.13;;;5.05;;
18748;SDS011;9503;53.560;10.246;2023-09-07T09:31:55;7.15;;;4.90;;
18748;SDS011;9503;53.560;10.246;2023-09-07T09:34:22;6.13;;;5.40;;
18748;SDS011;9503;53.560;10.246;2023-09-07T09:36:48;7.10;;;5.07;;
18748;SDS011;9503;53.560;10.246;2023-09-07T09:39:22;6.20;;;5.05;;
18748;SDS011;9503;53.560;10.246;2023-09-07T09:41:51;7.53;;;5.20;;
18748;SDS011;9503;53.560;10.246;2023-09-07T09:44:19;5.80;;;4.60;;
18748;SDS011;9503;53.560;10.246;2023-09-07T09:46:47;9.75;;;5.07;;
18748;SDS011;9503;53.560;10.246;2023-09-07T09:49:15;10.40;;;5.18;;
18748;SDS011;9503;53.560;10.246;2023-09-07T09:51:44;5.45;;;4.20;;
18748;SDS011;9503;53.560;10.246;2023-09-07T09:54:12;7.80;;;4.68;;
18748;SDS011;9503;53.560;10.246;2023-09-07T09:56:39;6.55;;;4.78;;
18748;SDS011;9503;53.560;10.246;2023-09-07T09:59:07;4.90;;;4.10;;
18748;SDS011;9503;53.560;10.246;2023-09-07T10:01:37;6.38;;;4.57;;
18748;SDS011;9503;53.560;10.246;2023-09-07T10:04:09;7.13;;;4.55;;
18748;SDS011;9503;53.560;10.246;2023-09-07T10:06:38;6.47;;;4.57;;
18748;SDS011;9503;53.560;10.246;2023-09-07T10:09:05;6.90;;;4.28;;
18748;SDS011;9503;53.560;10.246;2023-09-07T10:11:36;4.57;;;4.07;;
18748;SDS011;9503;53.560;10.246;2023-09-07T10:14:04;4.68;;;4.25;;
18748;SDS011;9503;53.560;10.246;2023-09-07T10:16:43;8.00;;;4.40;;
18748;SDS011;9503;53.560;10.246;2023-09-07T10:19:16;4.85;;;4.40;;
18748;SDS011;9503;53.560;10.246;2023-09-07T10:21:43;5.35;;;4.10;;
18748;SDS011;9503;53.560;10.246;2023-09-07T10:24:10;6.20;;;4.35;;
18748;SDS011;9503;53.560;10.246;2023-09-07T10:26:37;7.30;;;4.63;;
18748;SDS011;9503;53.560;10.246;2023-09-07T10:29:04;10.38;;;4.38;;
18748;SDS011;9503;53.560;10.246;2023-09-07T10:31:31;5.95;;;4.32;;
18748;SDS011;9503;53.560;10.246;2023-09-07T10:34:08;4.40;;;4.00;;
18748;SDS011;9503;53.560;10.246;2023-09-07T10:36:36;5.28;;;4.20;;
18748;SDS011;9503;53.560;10.246;2023-09-07T10:39:03;4.82;;;4.00;;
18748;SDS011;9503;53.560;10.246;2023-09-07T10:41:40;5.70;;;4.05;;
18748;SDS011;9503;53.560;10.246;2023-09-07T10:44:08;4.78;;;3.90;;
18748;SDS011;9503;53.560;10.246;2023-09-07T10:46:37;7.07;;;3.97;;
18748;SDS011;9503;53.560;10.246;2023-09-07T10:49:06;5.38;;;4.10;;
18748;SDS011;9503;53.560;10.246;2023-09-07T10:51:34;4.75;;;3.60;;
18748;SDS011;9503;53.560;10.246;2023-09-07T10:54:13;6.22;;;4.10;;
18748;SDS011;9503;53.560;10.246;2023-09-07T10:56:40;4.00;;;3.60;;
18748;SDS011;9503;53.560;10.246;2023-09-07T10:59:07;4.57;;;3.83;;
18748;SDS011;9503;53.560;10.246;2023-09-07T11:01:34;6.32;;;3.70;;
18748;SDS011;9503;53.560;10.246;2023-09-07T11:04:00;4.70;;;3.95;;
18748;SDS011;9503;53.560;10.246;2023-09-07T11:06:29;5.72;;;4.50;;
18748;SDS011;9503;53.560;10.246;2023-09-07T11:08:57;6.90;;;4.05;;
18748;SDS011;9503;53.560;10.246;2023-09-07T11:11:26;4.70;;;3.75;;
18748;SDS011;9503;53.560;10.246;2023-09-07T11:13:53;6.03;;;3.95;;
18748;SDS011;9503;53.560;10.246;2023-09-07T11:16:19;5.10;;;3.95;;
18748;SDS011;9503;53.560;10.246;2023-09-07T11:18:46;4.15;;;3.75;;
18748;SDS011;9503;53.560;10.246;2023-09-07T11:21:13;4.15;;;3.67;;
18748;SDS011;9503;53.560;10.246;2023-09-07T11:23:40;6.00;;;3.58;;
18748;SDS011;9503;53.560;10.246;2023-09-07T11:26:10;5.55;;;4.05;;
18748;SDS011;9503;53.560;10.246;2023-09-07T11:28:37;4.22;;;3.67;;
18748;SDS011;9503;53.560;10.246;2023-09-07T11:31:04;7.40;;;3.88;;
18748;SDS011;9503;53.560;10.246;2023-09-07T11:33:31;4.00;;;3.42;;
18748;SDS011;9503;53.560;10.246;2023-09-07T11:35:58;3.80;;;3.45;;
18748;SDS011;9503;53.560;10.246;2023-09-07T11:38:28;3.92;;;3.55;;
18748;SDS011;9503;53.560;10.246;2023-09-07T11:40:56;5.10;;;4.10;;
18748;SDS011;9503;53.560;10.246;2023-09-07T11:43:24;4.88;;;4.03;;
18748;SDS011;9503;53.560;10.246;2023-09-07T11:45:50;4.43;;;4.03;;
18748;SDS011;9503;53.560;10.246;2023-09-07T11:48:17;4.90;;;4.13;;
18748;SDS011;9503;53.560;10.246;2023-09-07T11:50:44;4.68;;;4.20;;
18748;SDS011;9503;53.560;10.246;2023-09-07T11:53:10;6.47;;;4.45;;
18748;SDS011;9503;53.560;10.246;2023-09-07T11:55:37;9.77;;;4.40;;
18748;SDS011;9503;53.560;10.246;2023-09-07T11:58:04;6.97;;;4.53;;
18748;SDS011;9503;53.560;10.246;2023-09-07T12:00:32;7.05;;;4.10;;
18748;SDS011;9503;53.560;10.246;2023-09-07T12:02:59;7.22;;;4.40;;
18748;SDS011;9503;53.560;10.246;2023-09-07T12:05:26;5.22;;;4.00;;
18748;SDS011;9503;53.560;10.246;2023-09-07T12:07:52;6.68;;;4.40;;
18748;SDS011;9503;53.560;10.246;2023-09-07T12:10:19;6.93;;;4.32;;
18748;SDS011;9503;53.560;10.246;2023-09-07T12:12:46;4.55;;;4.15;;
18748;SDS011;9503;53.560;10.246;2023-09-07T12:15:12;4.70;;;4.18;;
18748;SDS011;9503;53.560;10.246;2023-09-07T12:17:41;6.65;;;4.43;;
18748;SDS011;9503;53.560;10.246;2023-09-07T12:20:08;5.63;;;4.28;;
18748;SDS011;9503;53.560;10.246;2023-09-07T12:22:35;4.57;;;3.78;;
18748;SDS011;9503;53.560;10.246;2023-09-07T12:25:03;7.38;;;4.28;;
18748;SDS011;9503;53.560;10.246;2023-09-07T12:27:32;6.25;;;3.88;;
18748;SDS011;9503;53.560;10.246;2023-09-07T12:29:59;5.15;;;4.05;;
18748;SDS011;9503;53.560;10.246;2023-09-07T12:32:31;6.25;;;3.80;;
18748;SDS011;9503;53.560;10.246;2023-09-07T12:34:59;4.10;;;3.63;;
18748;SDS011;9503;53.560;10.246;2023-09-07T12:37:25;4.43;;;3.60;;
18748;SDS011;9503;53.560;10.246;2023-09-07T12:39:52;3.88;;;3.22;;
18748;SDS011;9503;53.560;10.246;2023-09-07T12:42:18;5.75;;;3.60;;
18748;SDS011;9503;53.560;10.246;2023-09-07T12:44:45;4.13;;;3.50;;
18748;SDS011;9503;53.560;10.246;2023-09-07T12:47:11;3.92;;;3.53;;
18748;SDS011;9503;53.560;10.246;2023-09-07T12:49:38;5.50;;;3.58;;
18748;SDS011;9503;53.560;10.246;2023-09-07T12:52:06;4.68;;;3.60;;
18748;SDS011;9503;53.560;10.246;2023-09-07T12:54:34;7.80;;;3.80;;
18748;SDS011;9503;53.560;10.246;2023-09-07T12:57:00;3.67;;;3.38;;
18748;SDS011;9503;53.560;10.246;2023-09-07T12:59:28;4.60;;;4.20;;
18748;SDS011;9503;53.560;10.246;2023-09-07T13:01:55;5.15;;;3.58;;
18748;SDS011;9503;53.560;10.246;2023-09-07T13:04:21;4.13;;;3.75;;
18748;SDS011;9503;53.560;10.246;2023-09-07T13:06:48;5.28;;;3.60;;
18748;SDS011;9503;53.560;10.246;2023-09-07T13:09:16;4.15;;;3.53;;
18748;SDS011;9503;53.560;10.246;2023-09-07T13:11:43;4.13;;;3.83;;
18748;SDS011;9503;53.560;10.246;2023-09-07T13:14:09;4.82;;;3.88;;
18748;SDS011;9503;53.560;10.246;2023-09-07T13:16:36;9.95;;;4.03;;
18748;SDS011;9503;53.560;10.246;2023-09-07T13:19:02;4.15;;;3.55;;
18748;SDS011;9503;53.560;10.246;2023-09-07T13:21:30;4.22;;;3.80;;
18748;SDS011;9503;53.560;10.246;2023-09-07T13:23:57;4.50;;;3.42;;
18748;SDS011;9503;53.560;10.246;2023-09-07T13:26:24;5.47;;;4.03;;
18748;SDS011;9503;53.560;10.246;2023-09-07T13:28:50;4.13;;;3.72;;
18748;SDS011;9503;53.560;10.246;2023-09-07T13:31:17;3.70;;;3.40;;
18748;SDS011;9503;53.560;10.246;2023-09-07T13:33:43;4.20;;;3.80;;
18748;SDS011;9503;53.560;10.246;2023-09-07T13:36:10;8.15;;;3.47;;
18748;SDS011;9503;53.560;10.246;2023-09-07T13:38:37;5.75;;;3.58;;
18748;SDS011;9503;53.560;10.246;2023-09-07T13:41:03;4.47;;;3.58;;
18748;SDS011;9503;53.560;10.246;2023-09-07T13:43:31;6.20;;;3.55;;
18748;SDS011;9503;53.560;10.246;2023-09-07T13:45:58;5.38;;;3.60;;
18748;SDS011;9503;53.560;10.246;2023-09-07T13:48:24;6.13;;;3.45;;
18748;SDS011;9503;53.560;10.246;2023-09-07T13:50:51;4.63;;;3.60;;
18748;SDS011;9503;53.560;10.246;2023-09-07T13:53:18;6.30;;;3.53;;
18748;SDS011;9503;53.560;10.246;2023-09-07T13:55:44;4.90;;;3.42;;
18748;SDS011;9503;53.560;10.246;2023-09-07T13:58:11;5.43;;;3.35;;
18748;SDS011;9503;53.560;10.246;2023-09-07T14:00:39;3.70;;;3.35;;
18748;SDS011;9503;53.560;10.246;2023-09-07T14:03:06;6.13;;;3.80;;
18748;SDS011;9503;53.560;10.246;2023-09-07T14:05:33;5.72;;;3.70;;
18748;SDS011;9503;53.560;10.246;2023-09-07T14:07:59;3.80;;;3.50;;
18748;SDS011;9503;53.560;10.246;2023-09-07T14:10:26;4.72;;;3.65;;
18748;SDS011;9503;53.560;10.246;2023-09-07T14:12:52;4.93;;;3.65;;
18748;SDS011;9503;53.560;10.246;2023-09-07T14:15:19;3.78;;;3.45;;
18748;SDS011;9503;53.560;10.246;2023-09-07T14:17:47;4.78;;;3.63;;
18748;SDS011;9503;53.560;10.246;2023-09-07T14:20:13;5.10;;;3.50;;
18748;SDS011;9503;53.560;10.246;2023-09-07T14:22:40;5.18;;;3.42;;
18748;SDS011;9503;53.560;10.246;2023-09-07T14:25:07;7.05;;;3.65;;
18748;SDS011;9503;53.560;10.246;2023-09-07T14:27:34;6.82;;;3.78;;
18748;SDS011;9503;53.560;10.246;2023-09-07T14:30:01;3.97;;;3.55;;
18748;SDS011;9503;53.560;10.246;2023-09-07T14:32:27;4.05;;;3.65;;
18748;SDS011;9503;53.560;10.246;2023-09-07T14:34:55;7.88;;;3.65;;
18748;SDS011;9503;53.560;10.246;2023-09-07T14:37:22;4.82;;;3.58;;
18748;SDS011;9503;53.560;10.246;2023-09-07T14:39:48;6.28;;;3.38;;
18748;SDS011;9503;53.560;10.246;2023-09-07T14:42:15;5.20;;;3.88;;
18748;SDS011;9503;53.560;10.246;2023-09-07T14:44:44;3.85;;;3.50;;